»·PEaware :: SWA6149 KSNA-KLAS

SWA6149 :: KSNA-KLAS

FLIGHT INFORMATION

Flight Status: Arrived
Operator:
Southwest Airlines
More flights by this operator :: More flights under this callsign
Pilot: Cody B. (17747)
Aircraft: BOEING 737-800
(B738)
More flights by this aircraft type
Origin: KSNA John Wayne-Orange Co
United States
Destination: KLAS McCarran Intl
United States
More flights between these airports :: More routes between these airports
Route: +FINZZ1 MISEN KEPEC6
File this flight plan on PilotEdge
Remarks:
Altitude:
(Current/Filed)
29,000ft
Speed:
(Current/Filed)
450kts
Departed: 09-Jan-18 11:26 AM
Arrived: 09-Jan-18 12:23 PM
Distance/Time
Traveled:
197nm/0:57
Distance/Time
To Go:
Arrived

Flight Plot

Page will automatically refresh every two minutes.

Flight plan parsing failed; only flown route is shown


Map Options




Map Legend


Flown Route
Filed Route
Departure Airport
Arrival Airport
Navaid (VOR, NDB)
Fix

Horizontal Profiles

Position Reports

Time Latitude Longitude Heading Altitude Ground
Speed
09-Jan-18 10:57 33.678322 -117.863046 118 43ft 0kts
09-Jan-18 10:58 33.678322 -117.863046 118 43ft 0kts
09-Jan-18 10:59 33.678322 -117.863046 118 43ft 0kts
09-Jan-18 11:00 33.678322 -117.863046 118 43ft 0kts
09-Jan-18 11:01 33.678322 -117.863046 118 43ft 0kts
09-Jan-18 11:02 33.678322 -117.863046 118 43ft 0kts
09-Jan-18 11:03 33.678322 -117.863046 118 43ft 0kts
09-Jan-18 11:04 33.678322 -117.863046 118 43ft 0kts
09-Jan-18 11:05 33.678322 -117.863046 118 43ft 0kts
09-Jan-18 11:06 33.678322 -117.863046 118 43ft 0kts
09-Jan-18 11:07 33.678322 -117.863046 118 43ft 0kts
09-Jan-18 11:08 33.678322 -117.863046 118 43ft 0kts
09-Jan-18 11:09 33.678322 -117.863046 118 43ft 0kts
09-Jan-18 11:10 33.678322 -117.863046 118 43ft 0kts
09-Jan-18 11:11 33.678322 -117.863046 118 43ft 0kts
09-Jan-18 11:12 33.678322 -117.863046 118 43ft 0kts
09-Jan-18 11:13 33.678322 -117.863046 118 43ft 0kts
09-Jan-18 11:14 33.678322 -117.863046 118 43ft 0kts
09-Jan-18 11:15 33.678322 -117.863046 118 43ft 0kts
09-Jan-18 11:16 33.678322 -117.863046 118 43ft 0kts
09-Jan-18 11:17 33.678322 -117.863046 118 43ft 0kts
09-Jan-18 11:18 33.678322 -117.863046 118 43ft 0kts
09-Jan-18 11:19 33.678322 -117.863046 118 43ft 0kts
09-Jan-18 11:20 33.678322 -117.863046 118 43ft 0kts
09-Jan-18 11:21 33.678322 -117.863046 118 43ft 0kts
09-Jan-18 11:22 33.678322 -117.863046 118 43ft 0kts
09-Jan-18 11:23 33.678372 -117.863158 118 43ft 2kts
09-Jan-18 11:24 33.678395 -117.863761 40 44ft 2kts
09-Jan-18 11:25 33.678287 -117.863840 27 44ft 0kts
09-Jan-18 11:26 33.678287 -117.863840 27 44ft 0kts
09-Jan-18 11:27 33.678287 -117.863840 27 44ft 0kts
09-Jan-18 11:28 33.678966 -117.863403 27 44ft 6kts
09-Jan-18 11:29 33.680600 -117.863012 304 43ft 0kts
09-Jan-18 11:30 33.680651 -117.863110 300 43ft 0kts
09-Jan-18 11:31 33.681161 -117.864243 297 44ft 11kts
09-Jan-18 11:32 33.674721 -117.869428 206 54ft 133kts
09-Jan-18 11:33 33.622396 -117.890217 189 2942ft 247kts
09-Jan-18 11:34 33.559016 -117.917916 221 5019ft 245kts
09-Jan-18 11:35 33.507831 -117.972560 227 6229ft 251kts
09-Jan-18 11:36 33.522762 -118.050401 304 8023ft 281kts
09-Jan-18 11:37 33.580367 -118.112171 343 8026ft 295kts
09-Jan-18 11:38 33.659713 -118.086645 22 9448ft 312kts
09-Jan-18 11:39 33.739954 -118.041592 24 12983ft 333kts
09-Jan-18 11:40 33.825432 -117.991958 26 14999ft 353kts
09-Jan-18 11:41 33.912291 -117.939982 36 15026ft 359kts
09-Jan-18 11:42 33.990573 -117.868024 38 16039ft 361kts
09-Jan-18 11:43 34.056104 -117.807790 38 17020ft 367kts
09-Jan-18 11:44 34.141117 -117.701234 56 18964ft 416kts
09-Jan-18 11:45 34.214907 -117.590948 56 21766ft 443kts
09-Jan-18 11:46 34.280167 -117.493903 57 24195ft 456kts
09-Jan-18 11:47 34.361377 -117.372348 57 26686ft 474kts
09-Jan-18 11:48 34.443504 -117.249066 57 28826ft 482kts
09-Jan-18 11:49 34.531484 -117.117007 56 28863ft 531kts
09-Jan-18 11:50 34.627682 -116.976068 55 28854ft 545kts
09-Jan-18 11:51 34.724004 -116.835071 55 28857ft 544kts
09-Jan-18 11:52 34.819319 -116.695565 55 28869ft 532kts
09-Jan-18 11:53 34.927619 -116.571629 40 28858ft 542kts
09-Jan-18 11:54 35.045579 -116.458817 41 28869ft 541kts
09-Jan-18 11:55 35.156022 -116.352345 41 28593ft 469kts
09-Jan-18 11:56 35.250507 -116.261079 42 26330ft 426kts
09-Jan-18 11:57 35.341253 -116.172989 42 23873ft 411kts
09-Jan-18 11:58 35.430132 -116.086811 42 23843ft 412kts
09-Jan-18 11:59 35.510551 -115.991013 63 23335ft 393kts
09-Jan-18 12:00 35.569581 -115.880277 63 21400ft 384kts
09-Jan-18 12:01 35.626813 -115.772291 63 19595ft 373kts
09-Jan-18 12:02 35.684159 -115.667807 51 17800ft 369kts
09-Jan-18 12:03 35.759302 -115.585871 20 16188ft 361kts
09-Jan-18 12:04 35.853631 -115.575450 2 14821ft 339kts
09-Jan-18 12:05 35.945995 -115.566075 2 13298ft 329kts
09-Jan-18 12:06 36.019260 -115.527105 74 12997ft 260kts
09-Jan-18 12:07 36.022838 -115.431146 88 10972ft 291kts
09-Jan-18 12:08 36.033734 -115.338276 110 10985ft 265kts
09-Jan-18 12:09 36.022776 -115.248803 106 9613ft 264kts
09-Jan-18 12:10 36.015790 -115.159025 105 8958ft 247kts
09-Jan-18 12:11 36.010165 -115.077750 104 8013ft 232kts
09-Jan-18 12:12 36.004991 -114.993770 103 8006ft 257kts
09-Jan-18 12:13 36.000176 -114.910864 104 7968ft 226kts
09-Jan-18 12:14 35.995162 -114.829879 103 7987ft 253kts
09-Jan-18 12:15 35.989771 -114.745993 104 7981ft 228kts
09-Jan-18 12:16 35.984794 -114.671748 106 7972ft 217kts
09-Jan-18 12:17 36.009783 -114.605638 17 7988ft 253kts
09-Jan-18 12:18 36.059299 -114.637345 273 7977ft 204kts
09-Jan-18 12:19 36.069995 -114.704505 261 7969ft 194kts
09-Jan-18 12:20 36.073215 -114.771161 258 7702ft 192kts
09-Jan-18 12:21 36.073208 -114.832442 258 6742ft 165kts
09-Jan-18 12:22 36.073246 -114.887671 261 5869ft 158kts
09-Jan-18 12:23 36.073453 -114.939266 265 5016ft 137kts
09-Jan-18 12:24 36.073539 -114.980921 269 4329ft 117kts
09-Jan-18 12:25 36.073589 -115.021821 274 3696ft 122kts
09-Jan-18 12:26 36.073696 -115.065565 273 3032ft 134kts
09-Jan-18 12:27 36.073675 -115.112601 271 2311ft 139kts
09-Jan-18 12:28 36.073713 -115.147469 279 2110ft 41kts
09-Jan-18 12:29 36.074326 -115.149782 296 2118ft 0kts
09-Jan-18 12:30 36.074438 -115.150010 299 2118ft 3kts
09-Jan-18 12:31 36.075185 -115.151226 322 2122ft 6kts
09-Jan-18 12:32 36.077311 -115.152525 335 2123ft 0kts
09-Jan-18 12:33 36.077425 -115.152582 337 2123ft 2kts
09-Jan-18 12:34 36.077862 -115.148467 96 2105ft 22kts
09-Jan-18 12:35 36.078454 -115.146274 94 2099ft 13kts
09-Jan-18 12:36 36.079136 -115.141372 15 2082ft 11kts
09-Jan-18 12:37 36.079873 -115.140479 58 2077ft 0kts
09-Jan-18 12:38 36.079888 -115.140449 59 2076ft 0kts
09-Jan-18 12:39 36.079888 -115.140449 59 2076ft 0kts
09-Jan-18 12:40 36.079888 -115.140449 59 2076ft 0kts

Navigation Log

Ident Type
Flight plan parsing failed, navigation log unavailable